sensor_id;sensor_type;location;lat;lon;timestamp;temperature;humidity
41481;DHT22;27217;51.220;5.308;2024-03-22T00:01:55;12.90;99.90
41481;DHT22;27217;51.220;5.308;2024-03-22T00:04:20;12.60;99.90
41481;DHT22;27217;51.220;5.308;2024-03-22T00:06:46;12.60;99.90
41481;DHT22;27217;51.220;5.308;2024-03-22T00:09:13;12.60;99.90
41481;DHT22;27217;51.220;5.308;2024-03-22T00:11:39;12.50;99.90
41481;DHT22;27217;51.220;5.308;2024-03-22T00:14:05;12.70;99.90
41481;DHT22;27217;51.220;5.308;2024-03-22T00:16:31;13.00;99.90
41481;DHT22;27217;51.220;5.308;2024-03-22T00:18:56;12.80;99.90
41481;DHT22;27217;51.220;5.308;2024-03-22T00:21:22;12.80;99.90
41481;DHT22;27217;51.220;5.308;2024-03-22T00:23:48;13.10;99.90
41481;DHT22;27217;51.220;5.308;2024-03-22T00:26:13;13.20;99.90
41481;DHT22;27217;51.220;5.308;2024-03-22T00:28:39;13.00;99.90
41481;DHT22;27217;51.220;5.308;2024-03-22T00:31:04;13.00;99.90
41481;DHT22;27217;51.220;5.308;2024-03-22T00:33:30;12.90;99.90
41481;DHT22;27217;51.220;5.308;2024-03-22T00:35:55;12.70;99.90
41481;DHT22;27217;51.220;5.308;2024-03-22T00:38:21;12.80;99.90
41481;DHT22;27217;51.220;5.308;2024-03-22T00:40:46;12.90;99.90
41481;DHT22;27217;51.220;5.308;2024-03-22T00:43:12;12.80;99.90
41481;DHT22;27217;51.220;5.308;2024-03-22T00:45:38;12.60;99.90
41481;DHT22;27217;51.220;5.308;2024-03-22T00:48:03;12.60;99.90
41481;DHT22;27217;51.220;5.308;2024-03-22T00:50:29;12.70;99.90
41481;DHT22;27217;51.220;5.308;2024-03-22T00:52:57;12.90;99.90
41481;DHT22;27217;51.220;5.308;2024-03-22T00:55:23;13.20;99.90
41481;DHT22;27217;51.220;5.308;2024-03-22T00:57:49;13.00;99.90
41481;DHT22;27217;51.220;5.308;2024-03-22T01:00:14;12.80;99.90
41481;DHT22;27217;51.220;5.308;2024-03-22T01:02:41;12.90;99.90
41481;DHT22;27217;51.220;5.308;2024-03-22T01:05:06;13.10;99.90
41481;DHT22;27217;51.220;5.308;2024-03-22T01:07:32;13.00;99.90
41481;DHT22;27217;51.220;5.308;2024-03-22T01:09:57;13.00;99.90
41481;DHT22;27217;51.220;5.308;2024-03-22T01:12:23;12.90;99.90
41481;DHT22;27217;51.220;5.308;2024-03-22T01:14:49;12.90;99.90
41481;DHT22;27217;51.220;5.308;2024-03-22T01:17:14;13.20;99.90
41481;DHT22;27217;51.220;5.308;2024-03-22T01:19:40;13.40;99.90
41481;DHT22;27217;51.220;5.308;2024-03-22T01:22:06;13.20;99.90
41481;DHT22;27217;51.220;5.308;2024-03-22T01:24:31;13.00;99.90
41481;DHT22;27217;51.220;5.308;2024-03-22T01:26:57;13.00;99.90
41481;DHT22;27217;51.220;5.308;2024-03-22T01:29:22;12.70;99.90
41481;DHT22;27217;51.220;5.308;2024-03-22T01:31:48;12.50;99.90
41481;DHT22;27217;51.220;5.308;2024-03-22T01:34:14;12.50;99.90
41481;DHT22;27217;51.220;5.308;2024-03-22T01:36:40;12.50;99.90
41481;DHT22;27217;51.220;5.308;2024-03-22T01:39:05;12.50;99.90
41481;DHT22;27217;51.220;5.308;2024-03-22T01:41:31;12.80;99.90
41481;DHT22;27217;51.220;5.308;2024-03-22T01:43:57;12.90;99.90
41481;DHT22;27217;51.220;5.308;2024-03-22T01:46:23;12.70;99.90
41481;DHT22;27217;51.220;5.308;2024-03-22T01:48:48;12.70;99.90
41481;DHT22;27217;51.220;5.308;2024-03-22T01:51:14;12.80;99.90
41481;DHT22;27217;51.220;5.308;2024-03-22T01:53:39;12.70;99.90
41481;DHT22;27217;51.220;5.308;2024-03-22T01:56:05;12.60;99.90
41481;DHT22;27217;51.220;5.308;2024-03-22T01:58:31;12.60;99.90
41481;DHT22;27217;51.220;5.308;2024-03-22T02:00:57;12.50;99.90
41481;DHT22;27217;51.220;5.308;2024-03-22T02:03:23;12.80;99.90
41481;DHT22;27217;51.220;5.308;2024-03-22T02:05:49;12.70;99.90
41481;DHT22;27217;51.220;5.308;2024-03-22T02:08:14;12.80;99.90
41481;DHT22;27217;51.220;5.308;2024-03-22T02:10:39;12.80;99.90
41481;DHT22;27217;51.220;5.308;2024-03-22T02:13:05;12.80;99.90
41481;DHT22;27217;51.220;5.308;2024-03-22T02:15:30;12.60;99.90
41481;DHT22;27217;51.220;5.308;2024-03-22T02:17:56;12.60;99.90
41481;DHT22;27217;51.220;5.308;2024-03-22T02:20:22;12.70;99.90
41481;DHT22;27217;51.220;5.308;2024-03-22T02:22:47;12.70;99.90
41481;DHT22;27217;51.220;5.308;2024-03-22T02:25:13;12.40;99.90
41481;DHT22;27217;51.220;5.308;2024-03-22T02:27:38;12.20;99.90
41481;DHT22;27217;51.220;5.308;2024-03-22T02:30:04;12.10;99.90
41481;DHT22;27217;51.220;5.308;2024-03-22T02:32:30;12.00;99.90
41481;DHT22;27217;51.220;5.308;2024-03-22T02:34:56;12.30;99.90
41481;DHT22;27217;51.220;5.308;2024-03-22T02:37:21;11.90;99.90
41481;DHT22;27217;51.220;5.308;2024-03-22T02:39:47;12.70;99.90
41481;DHT22;27217;51.220;5.308;2024-03-22T02:42:12;12.20;99.90
41481;DHT22;27217;51.220;5.308;2024-03-22T02:44:38;12.10;99.90
41481;DHT22;27217;51.220;5.308;2024-03-22T02:47:11;13.00;99.90
41481;DHT22;27217;51.220;5.308;2024-03-22T02:49:38;12.50;99.90
41481;DHT22;27217;51.220;5.308;2024-03-22T02:52:04;12.20;99.90
41481;DHT22;27217;51.220;5.308;2024-03-22T02:54:29;11.90;99.90
41481;DHT22;27217;51.220;5.308;2024-03-22T02:56:55;11.80;99.90
41481;DHT22;27217;51.220;5.308;2024-03-22T02:59:20;11.90;99.90
41481;DHT22;27217;51.220;5.308;2024-03-22T03:01:46;11.90;99.90
41481;DHT22;27217;51.220;5.308;2024-03-22T03:04:11;12.20;99.90
41481;DHT22;27217;51.220;5.308;2024-03-22T03:06:37;12.10;99.90
41481;DHT22;27217;51.220;5.308;2024-03-22T03:09:02;12.30;99.90
41481;DHT22;27217;51.220;5.308;2024-03-22T03:11:31;12.00;99.90
41481;DHT22;27217;51.220;5.308;2024-03-22T03:13:57;12.00;99.90
41481;DHT22;27217;51.220;5.308;2024-03-22T03:16:23;12.00;99.90
41481;DHT22;27217;51.220;5.308;2024-03-22T03:18:48;12.40;99.90
41481;DHT22;27217;51.220;5.308;2024-03-22T03:21:14;12.40;99.90
41481;DHT22;27217;51.220;5.308;2024-03-22T03:23:39;12.30;99.90
41481;DHT22;27217;51.220;5.308;2024-03-22T03:26:05;12.40;99.90
41481;DHT22;27217;51.220;5.308;2024-03-22T03:28:30;12.30;99.90
41481;DHT22;27217;51.220;5.308;2024-03-22T03:30:56;12.10;99.90
41481;DHT22;27217;51.220;5.308;2024-03-22T03:33:21;12.00;99.90
41481;DHT22;27217;51.220;5.308;2024-03-22T03:35:47;12.50;99.90
41481;DHT22;27217;51.220;5.308;2024-03-22T03:38:12;12.00;99.90
41481;DHT22;27217;51.220;5.308;2024-03-22T03:40:38;11.80;99.90
41481;DHT22;27217;51.220;5.308;2024-03-22T03:43:04;11.90;99.90
41481;DHT22;27217;51.220;5.308;2024-03-22T03:45:29;11.90;99.90
41481;DHT22;27217;51.220;5.308;2024-03-22T03:47:55;11.80;99.90
41481;DHT22;27217;51.220;5.308;2024-03-22T03:50:20;11.80;99.90
41481;DHT22;27217;51.220;5.308;2024-03-22T03:52:46;12.40;99.90
41481;DHT22;27217;51.220;5.308;2024-03-22T03:55:11;11.60;99.90
41481;DHT22;27217;51.220;5.308;2024-03-22T03:57:37;11.80;99.90
41481;DHT22;27217;51.220;5.308;2024-03-22T04:00:03;11.80;99.90
41481;DHT22;27217;51.220;5.308;2024-03-22T04:02:29;11.70;99.90
41481;DHT22;27217;51.220;5.308;2024-03-22T04:04:54;11.80;99.90
41481;DHT22;27217;51.220;5.308;2024-03-22T04:07:20;11.80;99.90
41481;DHT22;27217;51.220;5.308;2024-03-22T04:09:46;11.70;99.90
41481;DHT22;27217;51.220;5.308;2024-03-22T04:12:12;11.90;99.90
41481;DHT22;27217;51.220;5.308;2024-03-22T04:14:37;12.00;99.90
41481;DHT22;27217;51.220;5.308;2024-03-22T04:17:03;12.00;99.90
41481;DHT22;27217;51.220;5.308;2024-03-22T04:19:28;11.80;99.90
41481;DHT22;27217;51.220;5.308;2024-03-22T04:21:54;11.80;99.90
41481;DHT22;27217;51.220;5.308;2024-03-22T04:24:19;11.80;99.90
41481;DHT22;27217;51.220;5.308;2024-03-22T04:26:45;11.90;99.90
41481;DHT22;27217;51.220;5.308;2024-03-22T04:29:11;11.90;99.90
41481;DHT22;27217;51.220;5.308;2024-03-22T04:31:36;11.90;99.90
41481;DHT22;27217;51.220;5.308;2024-03-22T04:34:02;12.10;99.90
41481;DHT22;27217;51.220;5.308;2024-03-22T04:36:27;12.10;99.90
41481;DHT22;27217;51.220;5.308;2024-03-22T04:38:53;12.10;99.90
41481;DHT22;27217;51.220;5.308;2024-03-22T04:41:18;12.10;99.90
41481;DHT22;27217;51.220;5.308;2024-03-22T04:43:44;12.60;99.90
41481;DHT22;27217;51.220;5.308;2024-03-22T04:46:10;11.90;99.90
41481;DHT22;27217;51.220;5.308;2024-03-22T04:48:35;12.00;99.90
41481;DHT22;27217;51.220;5.308;2024-03-22T04:51:01;11.90;99.90
41481;DHT22;27217;51.220;5.308;2024-03-22T04:53:26;12.10;99.90
41481;DHT22;27217;51.220;5.308;2024-03-22T04:55:52;12.00;99.90
41481;DHT22;27217;51.220;5.308;2024-03-22T04:58:18;12.40;99.90
41481;DHT22;27217;51.220;5.308;2024-03-22T05:00:44;12.00;99.90
41481;DHT22;27217;51.220;5.308;2024-03-22T05:03:10;12.00;99.90
41481;DHT22;27217;51.220;5.308;2024-03-22T05:05:36;12.10;99.90
41481;DHT22;27217;51.220;5.308;2024-03-22T05:08:02;11.90;99.90
41481;DHT22;27217;51.220;5.308;2024-03-22T05:10:29;11.80;99.90
41481;DHT22;27217;51.220;5.308;2024-03-22T05:12:55;11.80;99.90
41481;DHT22;27217;51.220;5.308;2024-03-22T05:15:20;11.90;99.90
41481;DHT22;27217;51.220;5.308;2024-03-22T05:17:46;11.80;99.90
41481;DHT22;27217;51.220;5.308;2024-03-22T05:20:11;11.90;99.90
41481;DHT22;27217;51.220;5.308;2024-03-22T05:22:37;11.80;99.90
41481;DHT22;27217;51.220;5.308;2024-03-22T05:25:03;11.80;99.90
41481;DHT22;27217;51.220;5.308;2024-03-22T05:27:30;11.60;99.90
41481;DHT22;27217;51.220;5.308;2024-03-22T05:29:56;11.70;99.90
41481;DHT22;27217;51.220;5.308;2024-03-22T05:32:21;11.70;99.90
41481;DHT22;27217;51.220;5.308;2024-03-22T05:34:47;11.60;99.90
41481;DHT22;27217;51.220;5.308;2024-03-22T05:37:12;11.50;99.90
41481;DHT22;27217;51.220;5.308;2024-03-22T05:39:38;11.50;99.90
41481;DHT22;27217;51.220;5.308;2024-03-22T05:42:05;11.40;99.90
41481;DHT22;27217;51.220;5.308;2024-03-22T05:44:31;11.60;99.90
41481;DHT22;27217;51.220;5.308;2024-03-22T05:46:57;11.50;99.90
41481;DHT22;27217;51.220;5.308;2024-03-22T05:49:22;11.40;99.90
41481;DHT22;27217;51.220;5.308;2024-03-22T05:51:48;11.50;99.90
41481;DHT22;27217;51.220;5.308;2024-03-22T05:54:14;11.50;99.90
41481;DHT22;27217;51.220;5.308;2024-03-22T05:56:39;11.80;99.90
41481;DHT22;27217;51.220;5.308;2024-03-22T05:59:05;11.70;99.90
41481;DHT22;27217;51.220;5.308;2024-03-22T06:01:31;11.70;99.90
41481;DHT22;27217;51.220;5.308;2024-03-22T06:03:59;11.70;99.90
41481;DHT22;27217;51.220;5.308;2024-03-22T06:06:25;11.80;99.90
41481;DHT22;27217;51.220;5.308;2024-03-22T06:08:51;11.90;99.90
41481;DHT22;27217;51.220;5.308;2024-03-22T06:11:22;12.10;99.90
41481;DHT22;27217;51.220;5.308;2024-03-22T06:13:47;12.00;99.90
41481;DHT22;27217;51.220;5.308;2024-03-22T06:16:13;11.90;99.90
41481;DHT22;27217;51.220;5.308;2024-03-22T06:18:39;11.60;99.90
41481;DHT22;27217;51.220;5.308;2024-03-22T06:21:05;11.70;99.90
41481;DHT22;27217;51.220;5.308;2024-03-22T06:23:31;11.80;99.90
41481;DHT22;27217;51.220;5.308;2024-03-22T06:25:57;11.70;99.90
41481;DHT22;27217;51.220;5.308;2024-03-22T06:28:22;11.70;99.90
41481;DHT22;27217;51.220;5.308;2024-03-22T06:30:48;11.60;99.90
41481;DHT22;27217;51.220;5.308;2024-03-22T06:33:14;11.60;99.90
41481;DHT22;27217;51.220;5.308;2024-03-22T06:35:42;11.60;99.90
41481;DHT22;27217;51.220;5.308;2024-03-22T06:38:08;11.70;99.90
41481;DHT22;27217;51.220;5.308;2024-03-22T06:40:34;11.90;99.90
41481;DHT22;27217;51.220;5.308;2024-03-22T06:42:59;11.80;99.90
41481;DHT22;27217;51.220;5.308;2024-03-22T06:45:25;11.80;99.90
41481;DHT22;27217;51.220;5.308;2024-03-22T06:47:50;12.00;99.90
41481;DHT22;27217;51.220;5.308;2024-03-22T06:50:16;11.70;99.90
41481;DHT22;27217;51.220;5.308;2024-03-22T06:52:52;11.90;99.90
41481;DHT22;27217;51.220;5.308;2024-03-22T06:55:19;11.70;99.90
41481;DHT22;27217;51.220;5.308;2024-03-22T06:57:47;11.50;99.90
41481;DHT22;27217;51.220;5.308;2024-03-22T07:00:13;11.60;99.90
41481;DHT22;27217;51.220;5.308;2024-03-22T07:02:39;11.80;99.90
41481;DHT22;27217;51.220;5.308;2024-03-22T07:05:08;11.90;99.90
41481;DHT22;27217;51.220;5.308;2024-03-22T07:07:35;11.60;99.90
41481;DHT22;27217;51.220;5.308;2024-03-22T07:10:01;11.50;99.90
41481;DHT22;27217;51.220;5.308;2024-03-22T07:12:26;11.40;99.90
41481;DHT22;27217;51.220;5.308;2024-03-22T07:14:52;11.60;99.90
41481;DHT22;27217;51.220;5.308;2024-03-22T07:17:18;11.40;99.90
41481;DHT22;27217;51.220;5.308;2024-03-22T07:19:49;11.40;99.90
41481;DHT22;27217;51.220;5.308;2024-03-22T07:22:15;11.60;99.90
41481;DHT22;27217;51.220;5.308;2024-03-22T07:24:41;11.70;99.90
41481;DHT22;27217;51.220;5.308;2024-03-22T07:27:06;11.90;99.90
41481;DHT22;27217;51.220;5.308;2024-03-22T07:29:32;11.80;99.90
41481;DHT22;27217;51.220;5.308;2024-03-22T07:31:57;11.60;99.90
41481;DHT22;27217;51.220;5.308;2024-03-22T07:34:23;11.80;99.90
41481;DHT22;27217;51.220;5.308;2024-03-22T07:36:48;11.70;99.90
41481;DHT22;27217;51.220;5.308;2024-03-22T07:39:14;11.50;99.90
41481;DHT22;27217;51.220;5.308;2024-03-22T07:41:40;11.60;99.90
41481;DHT22;27217;51.220;5.308;2024-03-22T07:44:05;11.60;99.90
41481;DHT22;27217;51.220;5.308;2024-03-22T07:46:31;11.50;99.90
41481;DHT22;27217;51.220;5.308;2024-03-22T07:48:56;11.50;99.90
41481;DHT22;27217;51.220;5.308;2024-03-22T07:51:24;11.50;99.90
41481;DHT22;27217;51.220;5.308;2024-03-22T07:53:50;11.60;99.90
41481;DHT22;27217;51.220;5.308;2024-03-22T07:56:17;11.60;99.90
41481;DHT22;27217;51.220;5.308;2024-03-22T07:58:42;11.60;99.90
41481;DHT22;27217;51.220;5.308;2024-03-22T08:01:08;11.90;99.90
41481;DHT22;27217;51.220;5.308;2024-03-22T08:03:34;11.90;99.90
41481;DHT22;27217;51.220;5.308;2024-03-22T08:05:59;12.10;99.90
41481;DHT22;27217;51.220;5.308;2024-03-22T08:08:25;12.20;99.90
41481;DHT22;27217;51.220;5.308;2024-03-22T08:10:50;12.20;99.90
41481;DHT22;27217;51.220;5.308;2024-03-22T08:13:16;12.30;99.90
41481;DHT22;27217;51.220;5.308;2024-03-22T08:15:42;12.40;99.90
41481;DHT22;27217;51.220;5.308;2024-03-22T08:18:09;12.40;99.90
41481;DHT22;27217;51.220;5.308;2024-03-22T08:20:34;12.30;99.90
41481;DHT22;27217;51.220;5.308;2024-03-22T08:23:00;12.40;99.90
41481;DHT22;27217;51.220;5.308;2024-03-22T08:25:25;12.40;99.90
41481;DHT22;27217;51.220;5.308;2024-03-22T08:27:51;12.50;99.90
41481;DHT22;27217;51.220;5.308;2024-03-22T08:30:20;12.30;99.90
41481;DHT22;27217;51.220;5.308;2024-03-22T08:32:46;12.30;99.90
41481;DHT22;27217;51.220;5.308;2024-03-22T08:35:11;12.50;99.90
41481;DHT22;27217;51.220;5.308;2024-03-22T08:37:37;12.50;99.90
41481;DHT22;27217;51.220;5.308;2024-03-22T08:40:02;12.20;99.90
41481;DHT22;27217;51.220;5.308;2024-03-22T08:42:30;12.10;99.90
41481;DHT22;27217;51.220;5.308;2024-03-22T08:44:55;12.20;99.90
41481;DHT22;27217;51.220;5.308;2024-03-22T08:47:21;12.10;99.90
41481;DHT22;27217;51.220;5.308;2024-03-22T08:49:46;12.10;99.90
41481;DHT22;27217;51.220;5.308;2024-03-22T08:52:12;11.90;99.90
41481;DHT22;27217;51.220;5.308;2024-03-22T08:54:38;11.70;99.90
41481;DHT22;27217;51.220;5.308;2024-03-22T08:57:03;11.90;99.90
41481;DHT22;27217;51.220;5.308;2024-03-22T08:59:29;12.10;99.90
41481;DHT22;27217;51.220;5.308;2024-03-22T09:01:54;12.10;99.90
41481;DHT22;27217;51.220;5.308;2024-03-22T09:04:20;12.10;99.90
41481;DHT22;27217;51.220;5.308;2024-03-22T09:06:45;12.30;99.90
41481;DHT22;27217;51.220;5.308;2024-03-22T09:09:12;12.20;99.90
41481;DHT22;27217;51.220;5.308;2024-03-22T09:11:37;12.50;99.90
41481;DHT22;27217;51.220;5.308;2024-03-22T09:14:03;12.50;99.90
41481;DHT22;27217;51.220;5.308;2024-03-22T09:16:28;12.40;99.90
41481;DHT22;27217;51.220;5.308;2024-03-22T09:18:54;12.70;99.90
41481;DHT22;27217;51.220;5.308;2024-03-22T09:21:19;12.70;99.90
41481;DHT22;27217;51.220;5.308;2024-03-22T09:23:45;12.60;99.90
41481;DHT22;27217;51.220;5.308;2024-03-22T09:26:10;12.70;99.90
41481;DHT22;27217;51.220;5.308;2024-03-22T09:28:36;12.40;99.90
41481;DHT22;27217;51.220;5.308;2024-03-22T09:31:05;12.20;99.90
41481;DHT22;27217;51.220;5.308;2024-03-22T09:33:32;12.40;99.90
41481;DHT22;27217;51.220;5.308;2024-03-22T09:35:58;12.30;99.90
41481;DHT22;27217;51.220;5.308;2024-03-22T09:38:24;12.10;99.90
41481;DHT22;27217;51.220;5.308;2024-03-22T09:40:49;12.20;99.90
41481;DHT22;27217;51.220;5.308;2024-03-22T09:43:19;12.60;99.90
41481;DHT22;27217;51.220;5.308;2024-03-22T09:45:46;12.40;99.90
41481;DHT22;27217;51.220;5.308;2024-03-22T09:48:12;12.40;99.90
41481;DHT22;27217;51.220;5.308;2024-03-22T09:50:41;12.50;99.90
41481;DHT22;27217;51.220;5.308;2024-03-22T09:53:06;12.40;99.90
41481;DHT22;27217;51.220;5.308;2024-03-22T09:55:33;12.40;99.90
41481;DHT22;27217;51.220;5.308;2024-03-22T09:57:59;12.30;99.90
41481;DHT22;27217;51.220;5.308;2024-03-22T10:00:25;12.40;99.90
41481;DHT22;27217;51.220;5.308;2024-03-22T10:02:51;12.50;99.90
41481;DHT22;27217;51.220;5.308;2024-03-22T10:05:20;12.20;99.90
41481;DHT22;27217;51.220;5.308;2024-03-22T10:07:46;12.60;99.90
41481;DHT22;27217;51.220;5.308;2024-03-22T10:10:12;12.70;99.90
41481;DHT22;27217;51.220;5.308;2024-03-22T10:12:39;12.70;99.90
41481;DHT22;27217;51.220;5.308;2024-03-22T10:15:05;12.70;99.90
41481;DHT22;27217;51.220;5.308;2024-03-22T10:17:31;12.90;99.90
41481;DHT22;27217;51.220;5.308;2024-03-22T10:19:56;12.90;99.90
41481;DHT22;27217;51.220;5.308;2024-03-22T10:22:22;12.70;99.90
41481;DHT22;27217;51.220;5.308;2024-03-22T10:24:50;12.80;99.90
41481;DHT22;27217;51.220;5.308;2024-03-22T10:27:16;12.90;99.90
41481;DHT22;27217;51.220;5.308;2024-03-22T10:29:44;12.60;99.90
41481;DHT22;27217;51.220;5.308;2024-03-22T10:32:10;12.50;99.90
41481;DHT22;27217;51.220;5.308;2024-03-22T10:34:36;12.40;99.90
41481;DHT22;27217;51.220;5.308;2024-03-22T10:37:02;12.30;99.90
41481;DHT22;27217;51.220;5.308;2024-03-22T10:39:29;12.40;99.90
41481;DHT22;27217;51.220;5.308;2024-03-22T10:41:56;12.50;99.90
41481;DHT22;27217;51.220;5.308;2024-03-22T10:44:24;12.40;99.90
41481;DHT22;27217;51.220;5.308;2024-03-22T10:46:50;12.50;99.90
41481;DHT22;27217;51.220;5.308;2024-03-22T10:49:20;12.40;99.90
41481;DHT22;27217;51.220;5.308;2024-03-22T10:51:47;12.40;99.90
41481;DHT22;27217;51.220;5.308;2024-03-22T10:54:16;12.40;99.90
41481;DHT22;27217;51.220;5.308;2024-03-22T10:56:43;12.70;99.90
41481;DHT22;27217;51.220;5.308;2024-03-22T10:59:12;12.50;99.90
41481;DHT22;27217;51.220;5.308;2024-03-22T11:01:38;12.40;99.90
41481;DHT22;27217;51.220;5.308;2024-03-22T11:04:04;12.50;99.90
41481;DHT22;27217;51.220;5.308;2024-03-22T11:06:31;12.60;99.90
41481;DHT22;27217;51.220;5.308;2024-03-22T11:09:00;12.50;99.90
41481;DHT22;27217;51.220;5.308;2024-03-22T11:11:28;12.40;99.90
41481;DHT22;27217;51.220;5.308;2024-03-22T11:13:53;12.30;99.90
41481;DHT22;27217;51.220;5.308;2024-03-22T11:16:21;12.30;99.90
41481;DHT22;27217;51.220;5.308;2024-03-22T11:18:47;12.40;99.90
41481;DHT22;27217;51.220;5.308;2024-03-22T11:21:14;12.40;99.90
41481;DHT22;27217;51.220;5.308;2024-03-22T11:23:39;12.40;99.90
41481;DHT22;27217;51.220;5.308;2024-03-22T11:26:08;12.50;99.90
41481;DHT22;27217;51.220;5.308;2024-03-22T11:28:35;12.60;99.90
41481;DHT22;27217;51.220;5.308;2024-03-22T11:31:01;12.70;99.90
41481;DHT22;27217;51.220;5.308;2024-03-22T11:33:27;12.60;99.90
41481;DHT22;27217;51.220;5.308;2024-03-22T11:35:53;12.30;99.90
41481;DHT22;27217;51.220;5.308;2024-03-22T11:38:19;12.30;99.90
41481;DHT22;27217;51.220;5.308;2024-03-22T11:40:44;12.50;99.90
41481;DHT22;27217;51.220;5.308;2024-03-22T11:43:10;12.60;99.90
41481;DHT22;27217;51.220;5.308;2024-03-22T11:45:36;12.60;99.90
41481;DHT22;27217;51.220;5.308;2024-03-22T11:48:02;12.70;99.90
41481;DHT22;27217;51.220;5.308;2024-03-22T11:50:29;12.90;99.90
41481;DHT22;27217;51.220;5.308;2024-03-22T11:52:54;13.00;99.90
41481;DHT22;27217;51.220;5.308;2024-03-22T11:55:21;12.70;99.90
41481;DHT22;27217;51.220;5.308;2024-03-22T11:57:50;12.80;99.90
41481;DHT22;27217;51.220;5.308;2024-03-22T12:00:17;12.70;99.90
41481;DHT22;27217;51.220;5.308;2024-03-22T12:02:44;12.50;99.90
41481;DHT22;27217;51.220;5.308;2024-03-22T12:05:09;12.40;99.90
41481;DHT22;27217;51.220;5.308;2024-03-22T12:07:35;12.50;99.90
41481;DHT22;27217;51.220;5.308;2024-03-22T12:10:00;12.70;99.90
41481;DHT22;27217;51.220;5.308;2024-03-22T12:12:26;12.40;99.90
41481;DHT22;27217;51.220;5.308;2024-03-22T12:14:52;12.30;99.90
41481;DHT22;27217;51.220;5.308;2024-03-22T12:17:17;12.20;99.90
41481;DHT22;27217;51.220;5.308;2024-03-22T12:19:43;12.10;99.90
41481;DHT22;27217;51.220;5.308;2024-03-22T12:22:09;12.00;99.90
41481;DHT22;27217;51.220;5.308;2024-03-22T12:24:34;12.00;99.90
41481;DHT22;27217;51.220;5.308;2024-03-22T12:27:00;12.20;99.90
41481;DHT22;27217;51.220;5.308;2024-03-22T12:29:25;12.30;99.90
41481;DHT22;27217;51.220;5.308;2024-03-22T12:31:51;12.30;99.90
41481;DHT22;27217;51.220;5.308;2024-03-22T12:34:16;12.10;99.90
41481;DHT22;27217;51.220;5.308;2024-03-22T12:36:42;12.20;99.90
41481;DHT22;27217;51.220;5.308;2024-03-22T12:39:08;12.20;99.90
41481;DHT22;27217;51.220;5.308;2024-03-22T12:41:33;12.10;99.90
41481;DHT22;27217;51.220;5.308;2024-03-22T12:43:59;12.30;99.90
41481;DHT22;27217;51.220;5.308;2024-03-22T12:46:25;12.20;99.90
41481;DHT22;27217;51.220;5.308;2024-03-22T12:48:51;11.90;99.90
41481;DHT22;27217;51.220;5.308;2024-03-22T12:51:16;11.80;99.90
41481;DHT22;27217;51.220;5.308;2024-03-22T12:53:42;11.90;99.90
41481;DHT22;27217;51.220;5.308;2024-03-22T12:56:08;11.90;99.90
41481;DHT22;27217;51.220;5.308;2024-03-22T12:58:33;11.90;99.90
41481;DHT22;27217;51.220;5.308;2024-03-22T13:00:59;12.10;99.90
41481;DHT22;27217;51.220;5.308;2024-03-22T13:03:26;12.10;99.90
41481;DHT22;27217;51.220;5.308;2024-03-22T13:05:52;12.30;99.90
41481;DHT22;27217;51.220;5.308;2024-03-22T13:08:17;12.50;99.90
41481;DHT22;27217;51.220;5.308;2024-03-22T13:10:44;12.10;99.90
41481;DHT22;27217;51.220;5.308;2024-03-22T13:13:10;12.00;99.90
41481;DHT22;27217;51.220;5.308;2024-03-22T13:15:36;11.90;99.90
41481;DHT22;27217;51.220;5.308;2024-03-22T13:18:03;12.10;99.90
41481;DHT22;27217;51.220;5.308;2024-03-22T13:20:29;11.80;99.90
41481;DHT22;27217;51.220;5.308;2024-03-22T13:22:55;12.00;99.90
41481;DHT22;27217;51.220;5.308;2024-03-22T13:25:20;12.10;99.90
41481;DHT22;27217;51.220;5.308;2024-03-22T13:27:46;12.10;99.90
41481;DHT22;27217;51.220;5.308;2024-03-22T13:30:11;11.90;99.90
41481;DHT22;27217;51.220;5.308;2024-03-22T13:32:38;11.80;99.90
41481;DHT22;27217;51.220;5.308;2024-03-22T13:35:04;12.00;99.90
41481;DHT22;27217;51.220;5.308;2024-03-22T13:37:31;11.80;99.90
41481;DHT22;27217;51.220;5.308;2024-03-22T13:39:56;11.50;99.90
41481;DHT22;27217;51.220;5.308;2024-03-22T13:42:22;11.50;99.90
41481;DHT22;27217;51.220;5.308;2024-03-22T13:44:50;11.60;99.90
41481;DHT22;27217;51.220;5.308;2024-03-22T13:47:16;11.40;99.90
41481;DHT22;27217;51.220;5.308;2024-03-22T13:49:43;11.50;99.90
41481;DHT22;27217;51.220;5.308;2024-03-22T13:52:08;11.50;99.90
41481;DHT22;27217;51.220;5.308;2024-03-22T13:54:34;11.40;99.90
41481;DHT22;27217;51.220;5.308;2024-03-22T13:57:00;11.50;99.90
41481;DHT22;27217;51.220;5.308;2024-03-22T13:59:28;11.60;99.90
41481;DHT22;27217;51.220;5.308;2024-03-22T14:01:54;11.80;99.90
41481;DHT22;27217;51.220;5.308;2024-03-22T14:04:24;11.70;99.90
41481;DHT22;27217;51.220;5.308;2024-03-22T14:06:51;11.30;99.90
41481;DHT22;27217;51.220;5.308;2024-03-22T14:09:17;11.40;99.90
41481;DHT22;27217;51.220;5.308;2024-03-22T14:11:42;11.40;99.90
41481;DHT22;27217;51.220;5.308;2024-03-22T14:14:11;11.00;99.90
41481;DHT22;27217;51.220;5.308;2024-03-22T14:16:37;11.90;99.90
41481;DHT22;27217;51.220;5.308;2024-03-22T14:19:03;11.80;99.90
41481;DHT22;27217;51.220;5.308;2024-03-22T14:21:28;11.80;99.90
41481;DHT22;27217;51.220;5.308;2024-03-22T14:23:54;11.90;99.90
41481;DHT22;27217;51.220;5.308;2024-03-22T14:26:20;12.00;99.90
41481;DHT22;27217;51.220;5.308;2024-03-22T14:28:46;12.10;99.90
41481;DHT22;27217;51.220;5.308;2024-03-22T14:31:12;11.80;99.90
41481;DHT22;27217;51.220;5.308;2024-03-22T14:33:38;11.90;99.90
41481;DHT22;27217;51.220;5.308;2024-03-22T14:36:04;11.90;99.90
41481;DHT22;27217;51.220;5.308;2024-03-22T14:38:31;12.20;99.90
41481;DHT22;27217;51.220;5.308;2024-03-22T14:40:57;12.30;99.90
41481;DHT22;27217;51.220;5.308;2024-03-22T14:43:23;12.10;99.90
41481;DHT22;27217;51.220;5.308;2024-03-22T14:45:50;12.00;99.90
41481;DHT22;27217;51.220;5.308;2024-03-22T14:48:21;12.20;99.90
41481;DHT22;27217;51.220;5.308;2024-03-22T14:53:32;12.50;99.90
41481;DHT22;27217;51.220;5.308;2024-03-22T14:55:58;12.40;99.90
41481;DHT22;27217;51.220;5.308;2024-03-22T14:58:27;12.70;99.90
41481;DHT22;27217;51.220;5.308;2024-03-22T15:00:53;12.40;99.90
41481;DHT22;27217;51.220;5.308;2024-03-22T15:03:19;12.50;99.90
41481;DHT22;27217;51.220;5.308;2024-03-22T15:05:44;12.40;99.90
41481;DHT22;27217;51.220;5.308;2024-03-22T15:08:10;12.20;99.90
41481;DHT22;27217;51.220;5.308;2024-03-22T15:10:37;12.10;99.90
41481;DHT22;27217;51.220;5.308;2024-03-22T15:13:02;12.00;99.90
41481;DHT22;27217;51.220;5.308;2024-03-22T15:15:28;11.90;99.90
41481;DHT22;27217;51.220;5.308;2024-03-22T15:17:54;12.90;99.90
41481;DHT22;27217;51.220;5.308;2024-03-22T15:20:19;12.20;99.90
41481;DHT22;27217;51.220;5.308;2024-03-22T15:22:45;12.10;99.90
41481;DHT22;27217;51.220;5.308;2024-03-22T15:25:11;12.10;99.90